Time;durP1;ratioP1;P1;durP2;ratioP2;P2;SDS_P1;SDS_P2;PMS_P1;PMS_P2;Temp;Humidity;BMP_temperature;BMP_pressure;BME280_temperature;BME280_humidity;BME280_pressure;Samples;Min_cycle;Max_cycle;Signal;HPM_P1;HPM_P2
2021/03/14 00:02:11;;;;;;;3.30;2.23;;;5.20;99.90;;;;;;5075601;28;20184;-66
2021/03/14 00:04:37;;;;;;;6.37;2.47;;;5.20;99.90;;;;;;5074485;28;20160;-66
2021/03/14 00:07:04;;;;;;;5.30;2.30;;;5.20;99.90;;;;;;5075837;28;20844;-66
2021/03/14 00:09:30;;;;;;;3.90;2.47;;;5.20;99.90;;;;;;5075106;28;20239;-66
2021/03/14 00:11:55;;;;;;;3.50;2.90;;;5.10;99.90;;;;;;5075368;28;20444;-66
2021/03/14 00:14:21;;;;;;;3.83;2.70;;;5.10;99.90;;;;;;5075660;28;20531;-66
2021/03/14 00:16:46;;;;;;;2.83;2.57;;;5.00;99.90;;;;;;5075249;28;20524;-66
2021/03/14 00:19:12;;;;;;;2.83;2.50;;;5.00;99.90;;;;;;5075340;28;20163;-66
2021/03/14 00:21:37;;;;;;;3.00;2.63;;;4.90;99.90;;;;;;5075355;28;20517;-66
2021/03/14 00:24:03;;;;;;;2.23;2.03;;;4.90;99.90;;;;;;5075073;28;20165;-66
2021/03/14 00:26:29;;;;;;;3.80;2.40;;;4.90;99.90;;;;;;5075031;28;20161;-66
2021/03/14 00:28:54;;;;;;;2.43;2.00;;;4.80;99.90;;;;;;5074973;28;20203;-66
2021/03/14 00:31:20;;;;;;;3.60;2.90;;;4.80;99.90;;;;;;5075041;28;20255;-66
2021/03/14 00:33:45;;;;;;;4.03;2.60;;;4.80;99.90;;;;;;5075055;28;20162;-66
2021/03/14 00:36:11;;;;;;;5.07;2.83;;;4.70;99.90;;;;;;5074975;28;20304;-66
2021/03/14 00:38:36;;;;;;;4.97;1.97;;;4.70;99.90;;;;;;5074971;28;20187;-66
2021/03/14 00:41:02;;;;;;;3.67;2.87;;;4.70;99.90;;;;;;5074855;28;20161;-66
2021/03/14 00:43:28;;;;;;;4.87;2.50;;;4.70;99.90;;;;;;5074562;28;20168;-66
2021/03/14 00:45:53;;;;;;;6.00;2.50;;;4.70;99.90;;;;;;5074410;28;20204;-66
2021/03/14 00:48:19;;;;;;;4.23;3.30;;;4.70;99.90;;;;;;5067118;28;20653;-66
2021/03/14 00:50:44;;;;;;;3.80;2.23;;;4.70;99.90;;;;;;5054685;28;20156;-66
2021/03/14 00:53:10;;;;;;;5.50;3.00;;;4.70;99.90;;;;;;5054565;28;20554;-66
2021/03/14 00:55:36;;;;;;;4.50;2.20;;;4.80;99.90;;;;;;5053464;28;20185;-66
2021/03/14 00:58:02;;;;;;;3.40;2.40;;;4.80;99.90;;;;;;5054608;28;20160;-66
2021/03/14 01:00:28;;;;;;;4.67;2.70;;;4.90;99.90;;;;;;5054840;28;20625;-66
2021/03/14 01:02:53;;;;;;;3.70;3.03;;;4.90;99.90;;;;;;5054719;28;20434;-66
2021/03/14 01:05:19;;;;;;;6.43;2.33;;;4.90;99.90;;;;;;5054419;28;20166;-66
2021/03/14 01:07:45;;;;;;;5.17;2.83;;;4.90;99.90;;;;;;5054249;28;20192;-66
2021/03/14 01:10:12;;;;;;;3.40;2.50;;;5.00;99.90;;;;;;5054301;28;20158;-66
2021/03/14 01:12:38;;;;;;;3.87;3.17;;;5.00;99.90;;;;;;5053515;28;20161;-66
2021/03/14 01:15:09;;;;;;;4.47;3.00;;;5.00;99.90;;;;;;5053055;28;20482;-66
2021/03/14 01:17:35;;;;;;;4.23;2.70;;;5.00;99.90;;;;;;5054595;28;20400;-66
2021/03/14 01:20:00;;;;;;;3.43;2.40;;;5.00;99.90;;;;;;5054079;28;20943;-66
2021/03/14 01:22:26;;;;;;;7.77;2.97;;;5.10;99.90;;;;;;5054288;28;20411;-66
2021/03/14 01:24:51;;;;;;;5.90;3.20;;;5.10;99.90;;;;;;5052980;28;20483;-66
2021/03/14 01:27:17;;;;;;;4.97;2.67;;;5.10;99.90;;;;;;5054150;28;20195;-66
2021/03/14 01:29:42;;;;;;;4.00;2.50;;;5.10;99.90;;;;;;5053836;28;20153;-66
2021/03/14 01:32:08;;;;;;;7.17;3.10;;;5.10;99.90;;;;;;5053838;28;20160;-66
2021/03/14 01:34:33;;;;;;;4.67;3.00;;;5.10;99.90;;;;;;5054401;28;20160;-66
2021/03/14 01:36:59;;;;;;;5.53;2.60;;;5.10;99.90;;;;;;5053761;28;20160;-66
2021/03/14 01:39:24;;;;;;;3.83;2.50;;;5.10;99.90;;;;;;5054154;28;20626;-66
2021/03/14 01:41:50;;;;;;;3.63;3.03;;;5.10;99.90;;;;;;5053755;28;20636;-66
2021/03/14 01:44:16;;;;;;;6.47;2.63;;;5.10;99.90;;;;;;5052716;28;20247;-67
2021/03/14 01:46:42;;;;;;;6.13;2.87;;;5.10;99.90;;;;;;5053299;28;20209;-66
2021/03/14 01:49:07;;;;;;;4.70;3.03;;;5.10;99.90;;;;;;5053463;28;20177;-66
2021/03/14 01:51:33;;;;;;;6.83;3.27;;;5.10;99.90;;;;;;5052646;28;20161;-66
2021/03/14 01:54:00;;;;;;;8.73;2.90;;;5.10;99.90;;;;;;5073779;28;20210;-66
2021/03/14 01:56:25;;;;;;;5.23;2.47;;;5.20;99.90;;;;;;5073416;28;20171;-66
2021/03/14 01:58:51;;;;;;;5.80;3.23;;;5.20;99.90;;;;;;5073308;28;20396;-66
2021/03/14 02:01:16;;;;;;;6.67;3.20;;;5.20;99.90;;;;;;5073442;28;20158;-66
2021/03/14 02:03:42;;;;;;;5.10;3.10;;;5.20;99.90;;;;;;5073357;28;20183;-66
2021/03/14 02:06:08;;;;;;;7.20;3.00;;;5.20;99.90;;;;;;5073324;28;20243;-66
2021/03/14 02:08:34;;;;;;;9.17;3.27;;;5.30;99.90;;;;;;5072555;28;20478;-66
2021/03/14 02:11:00;;;;;;;5.13;3.00;;;5.30;99.90;;;;;;5073222;28;20390;-66
2021/03/14 02:13:45;;;;;;;5.97;3.40;;;5.30;99.90;;;;;;5073201;28;20443;-66
2021/03/14 02:16:15;;;;;;;5.90;3.80;;;5.30;99.90;;;;;;5073194;28;20202;-66
2021/03/14 02:18:44;;;;;;;7.13;4.20;;;5.30;99.90;;;;;;5072594;28;20399;-66
2021/03/14 02:21:11;;;;;;;14.93;3.47;;;5.40;99.90;;;;;;5072056;28;20435;-66
2021/03/14 02:26:23;;;;;;;10.37;4.67;;;5.40;99.90;;;;;;5104094;27;20511;-65
2021/03/14 02:28:49;;;;;;;7.20;3.07;;;5.40;99.90;;;;;;5090341;28;20837;-65
2021/03/14 02:31:20;;;;;;;7.63;4.03;;;5.40;99.90;;;;;;5090275;28;20465;-65
2021/03/14 02:33:51;;;;;;;6.03;2.67;;;5.40;99.90;;;;;;5090547;28;20391;-65
2021/03/14 02:36:18;;;;;;;3.73;3.00;;;5.40;99.90;;;;;;5090618;28;20394;-65
2021/03/14 02:38:45;;;;;;;8.03;3.13;;;5.40;99.90;;;;;;5090197;28;20395;-65
2021/03/14 02:41:11;;;;;;;7.00;2.83;;;5.40;99.90;;;;;;5090121;28;20397;-65
2021/03/14 02:43:38;;;;;;;5.53;2.37;;;5.40;99.90;;;;;;5089969;28;20417;-65
2021/03/14 02:46:04;;;;;;;6.30;2.60;;;5.40;99.90;;;;;;5089899;28;20454;-65
2021/03/14 02:48:31;;;;;;;4.73;2.50;;;5.50;99.90;;;;;;5090163;28;20462;-65
2021/03/14 02:50:58;;;;;;;4.70;2.57;;;5.40;99.90;;;;;;5090062;28;20397;-65
2021/03/14 02:53:26;;;;;;;5.40;3.13;;;5.50;99.90;;;;;;5089851;28;20460;-65
2021/03/14 02:55:53;;;;;;;4.10;2.77;;;5.50;99.90;;;;;;5089841;28;20394;-65
2021/03/14 02:58:20;;;;;;;5.30;2.57;;;5.50;99.90;;;;;;5090074;28;20399;-65
2021/03/14 03:00:47;;;;;;;3.83;2.50;;;5.50;99.90;;;;;;5088614;28;20773;-65
2021/03/14 03:03:13;;;;;;;5.30;2.70;;;5.50;99.90;;;;;;5089692;28;20745;-65
2021/03/14 03:05:39;;;;;;;2.90;2.60;;;5.50;99.90;;;;;;5089653;28;20485;-65
2021/03/14 03:08:05;;;;;;;7.30;2.47;;;5.40;99.90;;;;;;5089581;28;20163;-65
2021/03/14 03:10:37;;;;;;;5.87;3.17;;;5.50;99.90;;;;;;5089590;28;20398;-65
2021/03/14 03:13:03;;;;;;;6.80;3.23;;;5.40;99.90;;;;;;5089494;28;20393;-65
2021/03/14 03:15:30;;;;;;;3.47;2.30;;;5.40;99.90;;;;;;5089507;28;20906;-65
2021/03/14 03:17:57;;;;;;;6.50;3.03;;;5.40;99.90;;;;;;5089336;28;20508;-65
2021/03/14 03:20:25;;;;;;;3.87;2.23;;;5.40;99.90;;;;;;5089418;28;20753;-67
2021/03/14 03:22:51;;;;;;;5.63;2.60;;;5.40;99.90;;;;;;5089278;28;20395;-65
2021/03/14 03:25:17;;;;;;;5.90;3.80;;;5.40;99.90;;;;;;5089174;28;20973;-65
2021/03/14 03:27:43;;;;;;;7.17;2.63;;;5.40;99.90;;;;;;5089452;28;20395;-65
2021/03/14 03:30:11;;;;;;;6.47;2.80;;;5.40;99.90;;;;;;5089087;28;20156;-65
2021/03/14 03:32:37;;;;;;;6.60;3.17;;;5.40;99.90;;;;;;5088773;28;20630;-65
2021/03/14 03:35:05;;;;;;;6.80;3.00;;;5.40;99.90;;;;;;5089703;28;20494;-65
2021/03/14 03:37:31;;;;;;;4.80;2.43;;;5.40;99.90;;;;;;5076669;28;20410;-65
2021/03/14 03:39:56;;;;;;;6.50;2.70;;;5.50;99.90;;;;;;5075585;28;20405;-65
2021/03/14 03:42:26;;;;;;;8.40;3.67;;;5.50;99.90;;;;;;5075489;28;20211;-65
2021/03/14 03:44:54;;;;;;;9.10;3.23;;;5.50;99.90;;;;;;5075494;28;20197;-65
2021/03/14 03:47:21;;;;;;;6.40;3.20;;;5.50;99.90;;;;;;5075386;28;20426;-65
2021/03/14 03:49:50;;;;;;;10.10;3.47;;;5.50;99.90;;;;;;5075601;28;20410;-65
2021/03/14 03:52:17;;;;;;;4.33;2.23;;;5.50;99.90;;;;;;5075088;28;20493;-65
2021/03/14 03:54:46;;;;;;;6.17;3.67;;;5.50;99.90;;;;;;5075338;28;20394;-65
2021/03/14 03:57:12;;;;;;;8.33;2.97;;;5.40;99.90;;;;;;5075458;28;20405;-65
2021/03/14 03:59:38;;;;;;;8.57;2.93;;;5.40;99.90;;;;;;5075201;28;20399;-65
2021/03/14 04:02:04;;;;;;;5.40;2.70;;;5.40;99.90;;;;;;5075017;28;20933;-65
2021/03/14 04:04:34;;;;;;;3.87;2.80;;;5.40;99.90;;;;;;5075211;28;20280;-65
2021/03/14 04:07:02;;;;;;;3.20;2.60;;;5.40;99.90;;;;;;5075072;28;20424;-65
2021/03/14 04:09:28;;;;;;;4.60;2.63;;;5.40;99.90;;;;;;5074852;28;20409;-65
2021/03/14 04:11:54;;;;;;;10.37;3.30;;;5.40;99.90;;;;;;5074974;28;20386;-65
2021/03/14 04:14:22;;;;;;;8.70;3.47;;;5.40;99.90;;;;;;5073606;28;20400;-65
2021/03/14 04:16:48;;;;;;;7.33;2.80;;;5.40;99.90;;;;;;5074874;28;20411;-65
2021/03/14 04:19:18;;;;;;;7.33;2.90;;;5.40;99.90;;;;;;5074945;28;20396;-65
2021/03/14 04:21:46;;;;;;;4.10;2.77;;;5.40;99.90;;;;;;5074686;28;20946;-65
2021/03/14 04:24:14;;;;;;;7.73;3.00;;;5.40;99.90;;;;;;5074757;28;20929;-65
2021/03/14 04:26:42;;;;;;;6.47;2.30;;;5.40;99.90;;;;;;5074489;28;20421;-65
2021/03/14 04:29:09;;;;;;;6.43;2.93;;;5.40;99.90;;;;;;5074683;28;20755;-65
2021/03/14 04:31:40;;;;;;;5.37;2.27;;;5.40;99.90;;;;;;5074617;28;20389;-65
2021/03/14 04:34:07;;;;;;;4.80;3.00;;;5.30;99.90;;;;;;5074784;28;20880;-66
2021/03/14 04:36:34;;;;;;;3.93;2.43;;;5.30;99.90;;;;;;5074687;28;20442;-65
2021/03/14 04:39:00;;;;;;;7.03;3.27;;;5.30;99.90;;;;;;5074442;28;20392;-65
2021/03/14 04:41:26;;;;;;;7.80;2.43;;;5.30;99.90;;;;;;5073055;28;20386;-65
2021/03/14 04:43:52;;;;;;;6.37;3.20;;;5.30;99.90;;;;;;5073755;28;20450;-65
2021/03/14 04:46:18;;;;;;;6.80;2.33;;;5.30;99.90;;;;;;5074542;28;20486;-65
2021/03/14 04:48:44;;;;;;;5.07;2.83;;;5.30;99.90;;;;;;5073200;28;20444;-65
2021/03/14 04:51:09;;;;;;;6.97;3.33;;;5.30;99.90;;;;;;5074397;28;20190;-65
2021/03/14 04:53:37;;;;;;;6.17;3.40;;;5.30;99.90;;;;;;5074102;28;20266;-65
2021/03/14 04:56:03;;;;;;;8.00;3.40;;;5.30;99.90;;;;;;5074369;28;20174;-65
2021/03/14 04:58:31;;;;;;;7.07;3.10;;;5.30;99.90;;;;;;5074105;28;20387;-65
2021/03/14 05:01:00;;;;;;;8.37;3.43;;;5.30;99.90;;;;;;5054062;28;20446;-65
2021/03/14 05:03:26;;;;;;;5.83;2.93;;;5.30;99.90;;;;;;5053786;28;20399;-65
2021/03/14 05:05:53;;;;;;;7.90;3.93;;;5.30;99.90;;;;;;5053916;28;20521;-65
2021/03/14 05:08:22;;;;;;;4.97;3.17;;;5.30;99.90;;;;;;5053816;28;20392;-65
2021/03/14 05:10:49;;;;;;;6.90;3.10;;;5.30;99.90;;;;;;5053828;28;20384;-65
2021/03/14 05:13:16;;;;;;;7.03;3.13;;;5.30;99.90;;;;;;5053714;28;20391;-65
2021/03/14 05:15:42;;;;;;;6.73;3.57;;;5.40;99.90;;;;;;5055966;28;20515;-65
2021/03/14 05:18:12;;;;;;;8.77;3.53;;;5.40;99.90;;;;;;5073812;28;20892;-65
2021/03/14 05:20:39;;;;;;;8.43;3.37;;;5.40;99.90;;;;;;5073637;28;20418;-65
2021/03/14 05:23:05;;;;;;;13.43;5.57;;;5.40;99.90;;;;;;5072512;28;20432;-65
2021/03/14 05:25:31;;;;;;;7.50;4.17;;;5.40;99.90;;;;;;5073410;28;20491;-65
2021/03/14 05:27:57;;;;;;;11.60;4.90;;;5.40;99.90;;;;;;5073550;28;20530;-65
2021/03/14 05:30:28;;;;;;;9.30;4.23;;;5.40;99.90;;;;;;5073597;28;20161;-65
2021/03/14 05:32:56;;;;;;;9.70;4.43;;;5.40;99.90;;;;;;5073806;28;20929;-65
2021/03/14 05:35:24;;;;;;;5.77;3.50;;;5.40;99.90;;;;;;5073275;28;20473;-65
2021/03/14 05:37:50;;;;;;;5.33;4.00;;;5.40;99.90;;;;;;5071968;28;20400;-65
2021/03/14 05:40:18;;;;;;;5.13;3.40;;;5.40;99.90;;;;;;5073456;28;20803;-65
2021/03/14 05:42:43;;;;;;;8.53;3.37;;;5.40;99.90;;;;;;5073331;28;20164;-65
2021/03/14 05:45:10;;;;;;;8.40;3.83;;;5.30;99.90;;;;;;5073297;28;20434;-65
2021/03/14 05:47:37;;;;;;;13.00;4.07;;;5.30;99.90;;;;;;5071783;28;20390;-65
2021/03/14 05:50:06;;;;;;;8.53;4.50;;;5.40;99.90;;;;;;5072912;28;20418;-65
2021/03/14 05:52:32;;;;;;;9.50;5.87;;;5.30;99.90;;;;;;5073099;28;20758;-65
2021/03/14 05:55:00;;;;;;;6.03;3.53;;;5.40;99.90;;;;;;5073380;28;20395;-65
2021/03/14 05:57:26;;;;;;;6.63;4.00;;;5.40;99.90;;;;;;5073197;28;20405;-65
2021/03/14 05:59:52;;;;;;;12.87;6.47;;;5.30;99.90;;;;;;5072982;28;20780;-65
2021/03/14 06:02:21;;;;;;;10.30;3.90;;;5.30;99.90;;;;;;5073243;28;20786;-65
2021/03/14 06:04:47;;;;;;;9.33;4.20;;;5.40;99.90;;;;;;5073052;28;20858;-66
2021/03/14 06:07:14;;;;;;;5.40;3.90;;;5.40;99.90;;;;;;5071743;28;20409;-66
2021/03/14 06:09:40;;;;;;;10.40;4.37;;;5.40;99.90;;;;;;5073065;28;20487;-65
2021/03/14 06:12:10;;;;;;;8.63;4.27;;;5.40;99.90;;;;;;5073236;28;20407;-66
2021/03/14 06:14:36;;;;;;;8.13;5.10;;;5.40;99.90;;;;;;5071836;28;20391;-65
2021/03/14 06:17:01;;;;;;;9.30;3.90;;;5.40;99.90;;;;;;5071611;28;20403;-66
2021/03/14 06:19:27;;;;;;;10.03;4.97;;;5.40;99.90;;;;;;5073073;28;20178;-65
2021/03/14 06:22:21;;;;;;;6.63;4.60;;;5.40;99.90;;;;;;5072931;28;20302;-67
2021/03/14 06:24:48;;;;;;;7.27;4.00;;;5.40;99.90;;;;;;5072066;28;20213;-65
2021/03/14 06:30:15;;;;;;;5.93;3.63;;;5.50;99.90;;;;;;5070437;28;20505;-65
2021/03/14 06:33:03;;;;;;;6.90;4.10;;;5.50;99.90;;;;;;5070272;28;20398;-65
2021/03/14 06:38:31;;;;;;;9.57;3.90;;;5.50;99.90;;;;;;5111238;27;20858;-67
2021/03/14 06:41:18;;;;;;;11.33;4.13;;;5.50;99.90;;;;;;5106872;28;20448;-66
2021/03/14 06:49:18;;;;;;;7.13;3.50;;;5.50;99.90;;;;;;5090540;27;20501;-65
2021/03/14 06:51:47;;;;;;;8.93;4.47;;;5.50;99.90;;;;;;5089365;28;20802;-65
2021/03/14 06:57:04;;;;;;;7.67;3.80;;;5.50;99.90;;;;;;5131552;27;21056;-66
2021/03/14 06:59:33;;;;;;;11.03;3.90;;;5.50;99.90;;;;;;5113903;28;20413;-66
2021/03/14 07:02:02;;;;;;;8.30;4.20;;;5.60;99.90;;;;;;5110413;28;20386;-67
2021/03/14 07:07:31;;;;;;;6.53;3.73;;;5.70;99.90;;;;;;5132670;27;20552;-65
2021/03/14 07:10:02;;;;;;;8.00;4.07;;;5.80;99.90;;;;;;5131956;28;20746;-65
2021/03/14 07:15:13;;;;;;;6.37;4.23;;;5.80;99.90;;;;;;5105882;27;20520;-67
2021/03/14 07:17:39;;;;;;;12.70;5.93;;;5.90;99.90;;;;;;5090770;28;20413;-67
2021/03/14 07:20:08;;;;;;;12.17;5.53;;;5.90;99.90;;;;;;5090437;28;20399;-67
2021/03/14 07:22:34;;;;;;;12.83;6.00;;;5.90;99.90;;;;;;5090800;28;20392;-66
2021/03/14 07:25:00;;;;;;;7.30;5.23;;;5.90;99.90;;;;;;5090450;28;20774;-65
2021/03/14 07:27:29;;;;;;;10.50;5.00;;;5.90;99.90;;;;;;5090595;28;20161;-66
2021/03/14 07:29:57;;;;;;;7.20;4.57;;;5.90;99.90;;;;;;5090301;28;20642;-66
2021/03/14 07:32:23;;;;;;;13.10;5.03;;;5.90;99.90;;;;;;5090451;28;20418;-67
2021/03/14 07:34:49;;;;;;;11.87;5.20;;;5.90;99.90;;;;;;5088932;28;20802;-66
2021/03/14 07:37:15;;;;;;;9.27;5.13;;;5.90;99.90;;;;;;5090633;28;20391;-66
2021/03/14 07:39:42;;;;;;;7.50;4.63;;;5.90;99.90;;;;;;5089998;28;20625;-66
2021/03/14 07:42:10;;;;;;;9.70;5.50;;;5.90;99.90;;;;;;5089980;28;20384;-66
2021/03/14 07:44:36;;;;;;;14.03;4.50;;;5.90;99.90;;;;;;5089998;28;20394;-67
2021/03/14 07:47:03;;;;;;;10.57;5.90;;;5.90;99.90;;;;;;5090047;28;20426;-67
2021/03/14 07:49:29;;;;;;;15.00;6.60;;;6.00;99.90;;;;;;5089761;28;20408;-66
2021/03/14 07:51:57;;;;;;;9.43;5.33;;;6.10;99.90;;;;;;5089887;28;20474;-66
2021/03/14 07:54:28;;;;;;;8.30;4.73;;;6.10;99.90;;;;;;5090043;28;20527;-66
2021/03/14 07:56:59;;;;;;;6.43;4.13;;;6.20;99.90;;;;;;5089806;28;20760;-66
2021/03/14 07:59:26;;;;;;;7.90;4.80;;;6.30;99.90;;;;;;5089917;28;20441;-67
2021/03/14 08:01:52;;;;;;;10.33;4.10;;;6.40;99.90;;;;;;5089798;28;20475;-66
2021/03/14 08:04:33;;;;;;;8.83;4.57;;;6.40;99.90;;;;;;5089658;28;20937;-66
2021/03/14 08:06:59;;;;;;;7.50;4.40;;;6.40;99.90;;;;;;5089743;28;20407;-66
2021/03/14 08:14:56;;;;;;;8.47;4.17;;;6.10;99.90;;;;;;5131545;27;20581;-66
2021/03/14 08:17:25;;;;;;;9.77;4.57;;;6.00;99.90;;;;;;5131279;28;20389;-66
2021/03/14 08:19:52;;;;;;;6.87;3.80;;;6.00;99.90;;;;;;5131520;28;20387;-66
2021/03/14 08:25:18;;;;;;;4.90;3.63;;;5.80;99.90;;;;;;5131364;27;21033;-65
2021/03/14 08:27:46;;;;;;;5.40;3.57;;;5.70;99.90;;;;;;5131541;28;20400;-65
2021/03/14 08:30:32;;;;;;;8.40;4.60;;;5.50;99.90;;;;;;5131552;28;20384;-66
2021/03/14 08:35:57;;;;;;;6.50;4.00;;;5.30;99.90;;;;;;5131485;27;20510;-66
2021/03/14 08:49:30;;;;;;;5.47;3.43;;;5.20;99.90;;;;;;5110812;27;21025;-65
2021/03/14 08:51:56;;;;;;;5.47;4.37;;;4.90;99.90;;;;;;5110769;28;20462;-65
2021/03/14 08:54:25;;;;;;;5.10;4.17;;;4.90;99.90;;;;;;5111196;28;20409;-65
2021/03/14 08:57:01;;;;;;;6.63;4.10;;;4.80;99.90;;;;;;5105108;28;20410;-66
2021/03/14 08:59:27;;;;;;;4.30;3.90;;;4.70;99.90;;;;;;5089430;28;20404;-67
2021/03/14 09:01:55;;;;;;;4.70;4.23;;;4.60;99.90;;;;;;5090330;28;20916;-67
2021/03/14 09:04:25;;;;;;;4.63;4.23;;;4.60;99.90;;;;;;5090235;28;20393;-67
2021/03/14 09:06:50;;;;;;;5.90;4.90;;;4.70;99.90;;;;;;5090475;28;20389;-67
2021/03/14 09:09:18;;;;;;;6.87;5.30;;;4.70;99.90;;;;;;5089901;28;20444;-67
2021/03/14 09:19:48;;;;;;;9.50;6.17;;;4.70;99.90;;;;;;5131552;27;20825;-65
2021/03/14 09:22:17;;;;;;;12.43;6.50;;;4.90;99.90;;;;;;5130222;28;20417;-65
2021/03/14 09:24:45;;;;;;;9.00;6.10;;;5.00;99.90;;;;;;5131273;28;20488;-65
2021/03/14 09:37:54;;;;;;;4.43;3.93;;;4.90;99.90;;;;;;5131464;27;20526;-66
2021/03/14 09:40:24;;;;;;;5.43;4.33;;;4.80;99.90;;;;;;5130406;28;20459;-66
2021/03/14 09:43:05;;;;;;;6.23;3.43;;;4.70;99.90;;;;;;5131412;28;20812;-66
2021/03/14 09:45:31;;;;;;;6.83;4.33;;;4.70;99.90;;;;;;5130595;28;20479;-66
2021/03/14 09:48:18;;;;;;;5.67;4.00;;;4.60;99.90;;;;;;5127548;27;20403;-66
2021/03/14 09:53:23;;;;;;;4.57;4.17;;;4.60;99.90;;;;;;5131371;27;20882;-65
2021/03/14 09:55:50;;;;;;;7.63;4.20;;;4.60;99.90;;;;;;5131356;28;20390;-65
2021/03/14 09:58:19;;;;;;;7.40;4.90;;;4.50;99.90;;;;;;5131814;28;20522;-65
2021/03/14 10:00:47;;;;;;;5.33;4.73;;;4.50;99.90;;;;;;5131521;28;20389;-65
2021/03/14 10:03:14;;;;;;;6.07;5.23;;;4.40;99.90;;;;;;5131255;28;20387;-65
2021/03/14 10:05:46;;;;;;;4.80;4.40;;;4.50;99.90;;;;;;5121054;28;20393;-65
2021/03/14 10:08:18;;;;;;;4.80;4.30;;;4.60;99.90;;;;;;5110495;28;20446;-65
2021/03/14 10:10:44;;;;;;;6.23;5.63;;;4.70;99.90;;;;;;5109441;28;20471;-65
2021/03/14 10:13:10;;;;;;;7.70;5.67;;;4.80;99.90;;;;;;5110757;28;20530;-65
2021/03/14 10:15:36;;;;;;;6.83;5.50;;;4.90;99.90;;;;;;5110530;28;20391;-65
2021/03/14 10:18:03;;;;;;;14.87;6.30;;;5.00;99.90;;;;;;5110376;28;20397;-65
2021/03/14 10:20:29;;;;;;;7.30;5.20;;;5.10;99.90;;;;;;5110299;28;20765;-65
2021/03/14 10:23:01;;;;;;;6.13;5.50;;;5.20;99.90;;;;;;5111096;28;20405;-65
2021/03/14 10:25:29;;;;;;;9.77;5.50;;;5.30;99.90;;;;;;5110313;28;20397;-65
2021/03/14 10:28:16;;;;;;;6.93;5.50;;;5.40;99.90;;;;;;5110621;28;20423;-65
2021/03/14 10:30:44;;;;;;;7.17;5.40;;;5.40;99.90;;;;;;5109081;28;20917;-65
2021/03/14 10:33:13;;;;;;;7.80;6.40;;;5.50;99.90;;;;;;5110225;28;20432;-65
2021/03/14 10:35:41;;;;;;;8.50;7.03;;;5.50;99.90;;;;;;5110219;28;20426;-65
2021/03/14 10:38:22;;;;;;;10.40;7.20;;;5.50;99.90;;;;;;5110078;28;20395;-67
2021/03/14 10:40:49;;;;;;;8.80;7.57;;;5.50;99.90;;;;;;5110480;28;20434;-67
2021/03/14 10:43:20;;;;;;;9.43;7.33;;;5.50;99.90;;;;;;5108805;28;20397;-65
2021/03/14 10:45:46;;;;;;;6.53;5.40;;;5.50;99.90;;;;;;5108584;28;20425;-67
2021/03/14 10:48:12;;;;;;;6.90;6.23;;;5.50;99.90;;;;;;5109747;28;20456;-65
2021/03/14 10:50:37;;;;;;;8.87;6.37;;;5.50;99.90;;;;;;5109776;28;20387;-67
2021/03/14 10:55:44;;;;;;;7.53;5.73;;;5.60;99.90;;;;;;5129499;27;20589;-66
2021/03/14 10:58:19;;;;;;;7.83;6.47;;;5.70;99.90;;;;;;5110900;28;20455;-65
2021/03/14 11:03:25;;;;;;;6.50;5.50;;;5.80;99.90;;;;;;5131416;27;20515;-65
2021/03/14 11:05:51;;;;;;;13.67;6.80;;;6.10;99.90;;;;;;5130182;28;20381;-65
2021/03/14 11:08:17;;;;;;;6.70;6.00;;;6.30;99.90;;;;;;5131808;28;20385;-65
2021/03/14 11:10:53;;;;;;;10.87;7.37;;;6.40;99.90;;;;;;5131364;28;20158;-65
2021/03/14 11:13:19;;;;;;;6.87;6.17;;;6.50;99.90;;;;;;5123903;28;20189;-65
2021/03/14 11:15:44;;;;;;;13.23;7.17;;;6.50;99.90;;;;;;5110573;28;20397;-65
2021/03/14 11:18:20;;;;;;;8.70;7.03;;;6.50;99.90;;;;;;5110654;28;20628;-65
2021/03/14 11:20:46;;;;;;;8.33;7.03;;;6.60;99.90;;;;;;5110873;28;20205;-65
2021/03/14 11:23:12;;;;;;;10.80;8.77;;;6.60;99.90;;;;;;5109493;28;20441;-65
2021/03/14 11:25:37;;;;;;;8.10;7.30;;;6.60;99.90;;;;;;5110542;28;20389;-66
2021/03/14 11:28:08;;;;;;;8.43;7.10;;;6.60;99.90;;;;;;5110737;28;20180;-65
2021/03/14 11:30:34;;;;;;;9.73;8.60;;;6.70;99.90;;;;;;5110927;28;20268;-65
2021/03/14 11:33:00;;;;;;;9.27;8.20;;;6.80;99.90;;;;;;5110281;28;20462;-65
2021/03/14 11:35:25;;;;;;;10.70;6.90;;;6.90;99.90;;;;;;5110364;28;20164;-65
2021/03/14 11:37:51;;;;;;;13.70;8.27;;;7.10;99.90;;;;;;5110288;28;20156;-65
2021/03/14 11:40:16;;;;;;;7.57;6.90;;;7.20;99.90;;;;;;5110282;28;20594;-65
2021/03/14 11:42:42;;;;;;;8.53;7.23;;;7.20;99.90;;;;;;5110007;28;20191;-65
2021/03/14 11:45:10;;;;;;;9.13;7.87;;;7.30;99.90;;;;;;5110014;28;20158;-65
2021/03/14 11:47:36;;;;;;;8.63;7.60;;;7.40;99.90;;;;;;5110823;28;20635;-65
2021/03/14 11:50:03;;;;;;;8.67;7.87;;;7.60;99.90;;;;;;5110118;28;20393;-65
2021/03/14 11:52:28;;;;;;;9.17;8.27;;;7.70;99.90;;;;;;5109967;28;20172;-65
2021/03/14 11:54:54;;;;;;;9.80;8.23;;;7.80;99.90;;;;;;5109873;28;20471;-66
2021/03/14 11:57:19;;;;;;;9.87;7.20;;;7.90;99.90;;;;;;5109883;28;20215;-65
2021/03/14 11:59:45;;;;;;;9.03;8.17;;;8.00;99.90;;;;;;5109821;28;20161;-65
2021/03/14 12:02:11;;;;;;;8.53;7.63;;;8.00;99.90;;;;;;5109719;28;20231;-65
2021/03/14 12:04:36;;;;;;;8.50;7.70;;;8.00;99.90;;;;;;5110440;28;20176;-65
2021/03/14 12:07:02;;;;;;;8.63;7.57;;;7.90;99.90;;;;;;5109795;28;20523;-65
2021/03/14 12:09:27;;;;;;;8.27;7.47;;;7.80;99.90;;;;;;5109702;28;20158;-66
2021/03/14 12:11:53;;;;;;;7.80;6.77;;;7.70;99.90;;;;;;5109804;28;20169;-65
2021/03/14 12:14:19;;;;;;;8.30;7.53;;;7.70;99.90;;;;;;5098263;28;20166;-65
2021/03/14 12:16:45;;;;;;;9.70;8.80;;;7.70;99.90;;;;;;5096207;28;20198;-65
2021/03/14 12:19:10;;;;;;;9.30;7.80;;;7.70;99.90;;;;;;5095918;28;20869;-65
2021/03/14 12:21:36;;;;;;;7.63;6.87;;;7.80;99.90;;;;;;5096310;28;20192;-65
2021/03/14 12:24:02;;;;;;;14.33;7.73;;;7.90;99.90;;;;;;5095829;28;20181;-65
2021/03/14 12:26:28;;;;;;;8.73;7.93;;;7.90;99.90;;;;;;5095781;28;20154;-66
2021/03/14 12:28:54;;;;;;;9.53;8.57;;;8.00;99.90;;;;;;5095929;28;20157;-67
2021/03/14 12:31:20;;;;;;;8.57;7.87;;;8.00;99.90;;;;;;5095690;28;20929;-66
2021/03/14 12:33:45;;;;;;;8.33;7.53;;;8.10;99.90;;;;;;5094351;28;20167;-66
2021/03/14 12:36:13;;;;;;;9.03;7.60;;;8.20;99.90;;;;;;5095505;28;20207;-66
2021/03/14 12:38:40;;;;;;;8.07;7.30;;;8.30;99.90;;;;;;5095190;28;20185;-65
2021/03/14 12:41:05;;;;;;;8.53;7.73;;;8.30;99.90;;;;;;5095393;28;20810;-66
2021/03/14 12:43:31;;;;;;;9.30;8.00;;;8.40;99.90;;;;;;5095684;28;20403;-65
2021/03/14 12:45:57;;;;;;;7.27;6.60;;;8.40;99.90;;;;;;5095390;28;20217;-65
2021/03/14 12:48:22;;;;;;;6.87;6.27;;;8.40;99.90;;;;;;5095368;28;20177;-65
2021/03/14 12:50:48;;;;;;;7.47;6.60;;;8.50;99.90;;;;;;5093992;28;20396;-65
2021/03/14 12:53:14;;;;;;;9.80;7.07;;;8.60;99.90;;;;;;5095290;28;20574;-65
2021/03/14 12:55:39;;;;;;;9.20;6.70;;;8.60;99.90;;;;;;5105563;28;20180;-65
2021/03/14 12:58:05;;;;;;;7.87;7.17;;;8.60;99.90;;;;;;5115561;28;20180;-65
2021/03/14 13:00:31;;;;;;;8.00;6.93;;;8.50;99.90;;;;;;5115535;28;20380;-66
2021/03/14 13:02:57;;;;;;;8.20;7.40;;;8.40;99.90;;;;;;5115212;28;20241;-66
2021/03/14 13:05:25;;;;;;;8.50;7.80;;;8.40;99.90;;;;;;5115592;28;20636;-65
2021/03/14 13:07:51;;;;;;;7.90;7.30;;;8.30;99.90;;;;;;5115309;28;20158;-66
2021/03/14 13:10:16;;;;;;;8.03;7.23;;;8.40;99.90;;;;;;5115433;28;20407;-65
2021/03/14 13:12:42;;;;;;;8.43;7.63;;;8.40;99.90;;;;;;5114405;28;20177;-66
2021/03/14 13:15:09;;;;;;;9.73;8.77;;;8.50;99.90;;;;;;5115302;28;20205;-65
2021/03/14 13:17:35;;;;;;;8.57;7.87;;;8.70;99.90;;;;;;5114021;28;20646;-66
2021/03/14 13:20:01;;;;;;;8.77;7.93;;;8.80;99.90;;;;;;5115076;28;20435;-65
2021/03/14 13:22:26;;;;;;;8.80;7.90;;;8.90;99.90;;;;;;5113736;28;20990;-66
2021/03/14 13:24:52;;;;;;;8.97;8.03;;;9.00;99.90;;;;;;5114024;28;20376;-65
2021/03/14 13:27:18;;;;;;;8.80;8.03;;;9.00;99.90;;;;;;5114976;28;20615;-65
2021/03/14 13:29:46;;;;;;;9.63;8.77;;;8.90;99.90;;;;;;5114091;28;20170;-65
2021/03/14 13:32:12;;;;;;;10.10;9.17;;;8.80;99.90;;;;;;5114881;28;20475;-65
2021/03/14 13:34:37;;;;;;;7.93;7.13;;;8.70;99.90;;;;;;5114939;28;20423;-65
2021/03/14 13:37:03;;;;;;;9.17;8.37;;;8.60;99.90;;;;;;5115385;28;20423;-66
2021/03/14 13:39:28;;;;;;;7.57;6.87;;;8.40;99.90;;;;;;5114673;28;20518;-66
2021/03/14 13:41:54;;;;;;;7.87;7.17;;;8.30;99.90;;;;;;5114612;28;20186;-65
2021/03/14 13:44:19;;;;;;;8.23;7.43;;;8.10;99.90;;;;;;5114583;28;20153;-65
2021/03/14 13:46:45;;;;;;;6.90;5.17;;;7.90;99.90;;;;;;5102116;28;20197;-65
2021/03/14 13:49:10;;;;;;;8.70;5.70;;;7.70;99.90;;;;;;5094490;28;20157;-65
2021/03/14 13:51:36;;;;;;;4.93;4.53;;;7.50;99.90;;;;;;5094390;28;20245;-65
2021/03/14 13:54:01;;;;;;;4.30;3.90;;;7.40;99.90;;;;;;5094370;28;20203;-65
2021/03/14 13:56:27;;;;;;;4.53;4.13;;;7.30;99.90;;;;;;5094128;28;20161;-66
2021/03/14 13:58:52;;;;;;;4.60;4.30;;;7.20;99.90;;;;;;5094066;28;20161;-65
2021/03/14 14:01:18;;;;;;;4.50;4.10;;;7.20;99.90;;;;;;5093832;28;21225;-65
2021/03/14 14:03:43;;;;;;;5.13;4.63;;;7.20;99.90;;;;;;5094884;28;20640;-65
2021/03/14 14:06:09;;;;;;;4.53;4.23;;;7.20;99.90;;;;;;5093905;28;20236;-65
2021/03/14 14:08:35;;;;;;;4.80;4.40;;;7.20;99.90;;;;;;5093797;28;20157;-65